Flight Track Log - Related Links

Times and Time Zones

All times are in EDT time to prevent confusion due to time zone crossing. See the UPS1122 flight status page for this flight to view local times or setup timezone preferences in your user account.

Time Position Orientation Groundspeed Altitude Reporting Facility
EDT Latitude Longitude Course Direction KTS MPH feet Rate Location/Type
Tue 03:48:17 AM 39.8623 -75.2673 255° West 151 174 900  Level FlightAware ADS-B
Tue 03:48:22 AM 39.8612 -75.2715 251° West 142 163 1,300 4,154 Climbing FlightAware ADS-B
Tue 03:48:30 AM 39.8593 -75.2773 247° West 138 159 1,800 3,000 Climbing FlightAware ADS-B
Tue 03:48:34 AM 39.8581 -75.2806 245° Southwest 142 163 1,900 1,125 Climbing FlightAware ADS-B
Tue 03:48:46 AM 39.8543 -75.2898 242° Southwest 164 189 2,100 667 Climbing FlightAware ADS-B
Tue 03:48:52 AM 39.8516 -75.2958 240° Southwest 181 208 2,100  Level FlightAware ADS-B
Tue 03:48:56 AM 39.8496 -75.2997 236° Southwest 190 219 2,100 750 Level FlightAware ADS-B
Tue 03:49:00 AM 39.8477 -75.3028 231° Southwest 198 228 2,200 1,500 Climbing FlightAware ADS-B
Tue 03:49:04 AM 39.8452 -75.3061 225° Southwest 202 232 2,300 1,714 Climbing FlightAware ADS-B
Tue 03:49:07 AM 39.8426 -75.3090 221° Southwest 205 236 2,400 2,250 Climbing FlightAware ADS-B
Tue 03:49:12 AM 39.8388 -75.3121 212° Southwest 210 242 2,600 3,000 Climbing FlightAware ADS-B
Tue 03:49:15 AM 39.8357 -75.3139 204° Southwest 213 245 2,800 2,571 Climbing FlightAware ADS-B
Tue 03:49:19 AM 39.8325 -75.3151 196° South 216 249 2,900 2,571 Climbing FlightAware ADS-B
Tue 03:49:22 AM 39.8295 -75.3158 190° South 218 251 3,100 3,000 Climbing FlightAware ADS-B
Tue 03:49:25 AM 39.8262 -75.3159 181° South 220 253 3,200 2,571 Climbing FlightAware ADS-B
Tue 03:49:29 AM 39.8220 -75.3154 175° South 222 255 3,400 2,571 Climbing FlightAware ADS-B
Tue 03:49:32 AM 39.8189 -75.3145 167° South 224 258 3,500 3,000 Climbing FlightAware ADS-B
Tue 03:49:35 AM 39.8153 -75.3128 160° South 225 259 3,700 2,571 Climbing FlightAware ADS-B
Tue 03:49:39 AM 39.8119 -75.3106 154° Southeast 230 265 3,800 1,714 Climbing FlightAware ADS-B
Tue 03:49:42 AM 39.8089 -75.3082 148° Southeast 235 270 3,900 1,714 Climbing FlightAware ADS-B
Tue 03:49:46 AM 39.8059 -75.3051 142° Southeast 241 277 4,000 1,714 Climbing FlightAware ADS-B
Tue 03:49:49 AM 39.8030 -75.3013 135° Southeast 247 284 4,100 1,714 Climbing FlightAware ADS-B
Tue 03:49:53 AM 39.7998 -75.2963 130° Southeast 254 292 4,200 1,500 Climbing FlightAware ADS-B
Tue 03:49:57 AM 39.7975 -75.2916 122° Southeast 261 300 4,300 1,500 Climbing FlightAware ADS-B
Tue 03:50:01 AM 39.7954 -75.2860 116° Southeast 266 306 4,400 1,714 Climbing FlightAware ADS-B
Tue 03:50:04 AM 39.7941 -75.2811 109° East 269 310 4,500 2,000 Climbing FlightAware ADS-B
Tue 03:50:10 AM 39.7925 -75.2721 103° East 274 315 4,700 2,500 Climbing FlightAware ADS-B
Tue 03:50:16 AM 39.7914 -75.2610 97° East 278 320 5,000 2,727 Climbing FlightAware ADS-B
Tue 03:50:21 AM 39.7909 -75.2537 95° East 281 323 5,200 3,000 Climbing FlightAware ADS-B
Tue 03:50:34 AM 39.7901 -75.2299 92° East 286 329 5,900 3,000 Climbing FlightAware ADS-B
Tue 03:50:47 AM 39.7900 -75.2080 90° East 289 333 6,500 3,000 Climbing FlightAware ADS-B
Tue 03:51:02 AM 39.7898 -75.1811 91° East 295 339 7,300 2,903 Climbing FlightAware ADS-B
Tue 03:51:18 AM 39.7899 -75.1535 90° East 298 343 8,000 2,903 Climbing FlightAware ADS-B
Tue 03:51:33 AM 39.7902 -75.1255 89° East 302 348 8,800 3,000 Climbing FlightAware ADS-B
Tue 03:51:48 AM 39.7904 -75.0976 89° East 305 351 9,500 2,426 Climbing FlightAware ADS-B
Tue 03:52:20 AM 39.7909 -75.0380 89° East 324 373 10,700 1,839 Climbing FlightAware ADS-B
Tue 03:52:50 AM 39.7914 -74.9759 89° East 356 410 11,400 1,200 Climbing FlightAware ADS-B
Tue 03:53:20 AM 39.7919 -74.9078 89° East 375 432 11,900 737 Climbing FlightAware ADS-B
Tue 03:53:47 AM 39.7924 -74.8460 89° East 378 435 12,100 1,034 Climbing FlightAware ADS-B
Tue 03:54:18 AM 39.7932 -74.7753 89° East 394 453 12,900 1,538 Climbing FlightAware ADS-B
Tue 03:54:26 AM 39.7950 -74.7547 84° East 400 460 13,100 1,500 Climbing FlightAware ADS-B
Tue 03:54:30 AM 39.7965 -74.7462 77° East 402 463 13,200 1,385 Climbing FlightAware ADS-B
Tue 03:54:39 AM 39.8028 -74.7241 70° East 407 468 13,400 1,385 Climbing FlightAware ADS-B
Tue 03:54:43 AM 39.8056 -74.7172 62° Northeast 407 468 13,500 1,800 Climbing FlightAware ADS-B
Tue 03:54:49 AM 39.8127 -74.7031 57° Northeast 409 471 13,700 1,800 Climbing FlightAware ADS-B
Tue 03:54:53 AM 39.8165 -74.6970 51° Northeast 409 471 13,800 1,636 Climbing FlightAware ADS-B
Tue 03:55:00 AM 39.8270 -74.6833 45° Northeast 410 472 14,000 2,053 Climbing FlightAware ADS-B
Tue 03:55:31 AM 39.8726 -74.6369 38° Northeast 416 479 15,100 2,032 Climbing FlightAware ADS-B
Tue 03:56:02 AM 39.9218 -74.5894 37° Northeast 423 487 16,100 1,846 Climbing FlightAware ADS-B
Tue 03:56:36 AM 39.9752 -74.5371 37° Northeast 432 497 17,100 1,781 Climbing FlightAware ADS-B
Tue 03:57:06 AM 40.0238 -74.4891 37° Northeast 439 505 18,000 1,700 Climbing FlightAware ADS-B
Tue 03:57:36 AM 40.0729 -74.4404 37° Northeast 436 502 18,800 1,100 Climbing FlightAware ADS-B
Tue 03:58:06 AM 40.1196 -74.3937 37° Northeast 416 479 19,100 197 Climbing FlightAware ADS-B
Tue 03:58:37 AM 40.1691 -74.3444 37° Northeast 440 506 19,000 -97 Descending FlightAware ADS-B
Tue 03:59:08 AM 40.2184 -74.2951 37° Northeast 445 512 19,000  Level FlightAware ADS-B
Tue 03:59:38 AM 40.2674 -74.2458 38° Northeast 443 510 19,000  Level FlightAware ADS-B
Tue 04:00:08 AM 40.3165 -74.1962 38° Northeast 442 509 19,000  Level FlightAware ADS-B
Tue 04:00:38 AM 40.3658 -74.1465 38° Northeast 442 509 19,000  Level FlightAware ADS-B
Tue 04:01:01 AM 40.4027 -74.1087 38° Northeast 438 504 19,000  Level FlightAware ADS-B
Tue 04:01:12 AM 40.4193 -74.0889 42° Northeast 440 506 19,000  Level FlightAware ADS-B
Tue 04:01:28 AM 40.4410 -74.0582 47° Northeast 442 509 19,000  Level FlightAware ADS-B
Tue 04:01:35 AM 40.4499 -74.0434 52° Northeast 444 511 19,000  Level FlightAware ADS-B
Tue 04:01:46 AM 40.4633 -74.0180 55° Northeast 446 513 19,000  Level FlightAware ADS-B
Tue 04:02:17 AM 40.4964 -73.9476 58° Northeast 445 512 19,000  Level FlightAware ADS-B
Tue 04:02:47 AM 40.5287 -73.8775 59° Northeast 445 512 19,000  Level FlightAware ADS-B
Tue 04:03:16 AM 40.5598 -73.8098 59° Northeast 442 509 19,000  Level FlightAware ADS-B
Tue 04:03:29 AM 40.5756 -73.7803 55° Northeast 441 507 19,000  Level FlightAware ADS-B
Tue 04:03:39 AM 40.5881 -73.7618 48° Northeast 438 504 19,000  Level FlightAware ADS-B
Tue 04:03:55 AM 40.6123 -73.7336 41° Northeast 435 501 19,000  Level FlightAware ADS-B
Tue 04:04:11 AM 40.6395 -73.7110 32° Northeast 434 499 19,000  Level FlightAware ADS-B
Tue 04:04:41 AM 40.6932 -73.6728 28° Northeast 431 496 19,000  Level FlightAware ADS-B
Tue 04:05:36 AM 40.7902 -73.6043 28° Northeast 428 493 19,000  Level FlightAware ADS-B
Tue 04:06:07 AM 40.8446 -73.5656 28° Northeast 431 496 19,000  Level FlightAware ADS-B
Tue 04:06:37 AM 40.8975 -73.5279 28° Northeast 432 497 19,000  Level FlightAware ADS-B
Tue 04:07:07 AM 40.9508 -73.4897 28° Northeast 434 499 19,000 -774 Level FlightAware ADS-B
Tue 04:07:39 AM 41.0071 -73.4491 29° Northeast 428 493 18,200 -2,149 Descending FlightAware ADS-B
Tue 04:08:14 AM 41.0668 -73.4060 29° Northeast 421 484 16,600 -3,046 Descending FlightAware ADS-B
Tue 04:08:44 AM 41.1177 -73.3694 28° Northeast 410 472 14,900 -3,221 Descending FlightAware ADS-B
Tue 04:09:49 AM 41.2231 -73.2926 29° Northeast 398 458 11,500 -2,160 Descending FlightAware ADS-B
Tue 04:10:24 AM 41.2710 -73.2570 29° Northeast 397 457 11,300 -169 Descending FlightAware ADS-B
Tue 04:11:00 AM 41.3200 -73.2210 29° Northeast 397 457 11,300  Level FlightAware ADS-B
Tue 04:11:47 AM 41.3840 -73.1740 29° Northeast 397 457 11,300 -156 Level FlightAware ADS-B
Tue 04:12:17 AM 41.4269 -73.1433 29° Northeast 307 353 11,100 -724 Descending Boston Center
Tue 04:13:43 AM 41.5336 -73.0697 29° Northeast 295 339 9,900 -1,582 Descending Boston Center
Tue 04:14:00 AM 41.5066 -73.0380 31° Northeast  Level FlightAware Approximate
Tue 04:15:19 AM 41.6467 -72.9844 29° Northeast 285 328 6,300  Level Boston Center
Tue 04:16:20 AM 41.7158 -72.9350 28° Northeast 276 318 3,900 -1,587 Descending Boston Center
Tue 04:17:20 AM 41.7764 -72.8883 30° Northeast 265 305 3,100 -446 Descending Boston Center
Tue 04:18:21 AM 41.8286 -72.8386 35° Northeast 217 250 3,000 -541 Descending Boston Center
Tue 04:19:22 AM 41.8683 -72.7831 46° Northeast 201 231 2,000 -942 Descending Boston Center
Tue 04:20:22 AM 41.8997 -72.7414 45° Northeast 167 192 1,100 -744 Descending Boston Center
Tue 04:21:00 AM 41.9333 -72.6833 29° Northeast  Level FlightAware Approximate
Tue 04:21:23 AM 41.9250 -72.7081 44° Northeast 135 155 500  Level Boston Center
Tue 04:22:00 AM 41.9392 -72.6834 29° Northeast  Level Estimated
Tue 04:23:00 AM 41.9333 -72.6833 29° Northeast  Level FlightAware Approximate
Tue 04:25:00 AM 41.9333 -72.6833 29° Northeast  Level FlightAware Approximate
Tue 04:32:00 AM 41.9392 -72.6834 29° Northeast  Level Estimated
Tue 04:33:00 AM 41.9333 -72.6833 29° Northeast  Level FlightAware Approximate
Tue 04:34:00 AM 41.9392 -72.6834 29° Northeast  Level Estimated
Tue 04:35:00 AM 41.9333 -72.6833 29° Northeast  Level FlightAware Approximate
Tue 04:36:00 AM 41.9392 -72.6834 29° Northeast  Level Estimated

Login

Don't have an account? Register now (free) for customized features, flight alerts, and more!